createdAt,value
2017-11-25T00:00:58.955Z,0.00
2017-11-25T00:01:58.932Z,0.00
2017-11-25T00:02:58.901Z,0.00
2017-11-25T00:03:58.865Z,0.00
2017-11-25T00:04:58.838Z,0.00
2017-11-25T00:05:58.810Z,0.00
2017-11-25T00:06:58.776Z,0.00
2017-11-25T00:07:58.745Z,0.00
2017-11-25T00:08:58.711Z,0.00
2017-11-25T00:09:58.689Z,0.00
2017-11-25T00:10:58.660Z,0.00
2017-11-25T00:11:58.637Z,0.00
2017-11-25T00:12:58.593Z,0.00
2017-11-25T00:13:58.576Z,0.00
2017-11-25T00:14:58.539Z,0.00
2017-11-25T00:15:58.513Z,0.00
2017-11-25T00:16:58.480Z,0.00
2017-11-25T00:17:58.704Z,0.00
2017-11-25T00:18:58.421Z,0.00
2017-11-25T00:19:58.384Z,0.00
2017-11-25T00:20:58.362Z,0.00
2017-11-25T00:21:58.332Z,0.00
2017-11-25T00:22:58.297Z,0.00
2017-11-25T00:23:58.514Z,0.00
2017-11-25T00:24:58.237Z,0.00
2017-11-25T00:25:58.216Z,0.00
2017-11-25T00:26:58.188Z,0.00
2017-11-25T00:27:58.156Z,0.00
2017-11-25T00:28:58.120Z,0.00
2017-11-25T00:29:58.087Z,0.00
2017-11-25T00:30:58.057Z,0.00
2017-11-25T00:31:58.029Z,0.00
2017-11-25T00:32:58.002Z,0.00
2017-11-25T00:33:57.980Z,0.00
2017-11-25T00:34:57.937Z,0.00
2017-11-25T00:35:58.166Z,0.00
2017-11-25T00:36:57.881Z,0.00
2017-11-25T00:37:57.855Z,0.00
2017-11-25T00:38:57.818Z,0.00
2017-11-25T00:39:57.790Z,0.00
2017-11-25T00:40:57.764Z,0.00
2017-11-25T00:41:58.030Z,0.00
2017-11-25T00:42:57.721Z,0.00
2017-11-25T00:43:57.672Z,0.00
2017-11-25T00:44:57.641Z,0.00
2017-11-25T00:45:57.632Z,0.00
2017-11-25T00:46:57.590Z,0.00
2017-11-25T00:47:57.560Z,0.00
2017-11-25T00:48:57.535Z,0.00
2017-11-25T00:49:57.494Z,0.00
2017-11-25T00:50:57.465Z,0.00
2017-11-25T00:51:57.446Z,0.00
2017-11-25T00:52:57.408Z,0.00
2017-11-25T00:53:57.685Z,0.00
2017-11-25T00:54:57.344Z,0.00
2017-11-25T00:55:57.322Z,0.00
2017-11-25T00:56:57.295Z,0.00
2017-11-25T00:57:57.266Z,0.00
2017-11-25T00:58:57.479Z,0.00
2017-11-25T00:59:57.199Z,0.00
2017-11-25T01:00:57.173Z,0.00
2017-11-25T01:01:57.147Z,0.00
2017-11-25T01:02:57.114Z,0.00
2017-11-25T01:03:57.090Z,0.00
2017-11-25T01:04:57.056Z,0.00
2017-11-25T01:05:57.022Z,0.00
2017-11-25T01:06:56.993Z,0.00
2017-11-25T01:07:56.996Z,0.00
2017-11-25T01:08:56.933Z,0.00
2017-11-25T01:09:56.901Z,0.00
2017-11-25T01:10:56.869Z,0.00
2017-11-25T01:11:56.845Z,0.00
2017-11-25T01:12:56.813Z,0.00
2017-11-25T01:13:56.789Z,0.00
2017-11-25T01:14:56.761Z,0.00
2017-11-25T01:15:56.721Z,0.00
2017-11-25T01:16:56.947Z,0.00
2017-11-25T01:17:56.669Z,0.00
2017-11-25T01:18:56.646Z,0.00
2017-11-25T01:19:56.607Z,0.00
2017-11-25T01:20:56.574Z,0.00
2017-11-25T01:21:56.543Z,0.00
2017-11-25T01:22:56.776Z,0.00
2017-11-25T01:23:56.499Z,0.00
2017-11-25T01:24:56.456Z,0.00
2017-11-25T01:25:56.431Z,0.00
2017-11-25T01:26:56.414Z,0.00
2017-11-25T01:27:56.372Z,0.00
2017-11-25T01:28:56.340Z,0.00
2017-11-25T01:29:56.318Z,0.00
2017-11-25T01:30:56.279Z,0.00
2017-11-25T01:31:56.255Z,0.00
2017-11-25T01:32:56.221Z,0.00
2017-11-25T01:33:56.185Z,0.00
2017-11-25T01:34:56.164Z,0.00
2017-11-25T01:35:56.126Z,0.00
2017-11-25T01:36:56.102Z,0.00
2017-11-25T01:37:56.071Z,0.00
2017-11-25T01:38:56.048Z,0.00
2017-11-25T01:39:56.014Z,0.00
2017-11-25T01:40:55.985Z,0.00
2017-11-25T01:41:55.957Z,0.00
2017-11-25T01:42:55.923Z,0.00
2017-11-25T01:43:55.896Z,0.00
2017-11-25T01:44:55.870Z,0.00
2017-11-25T01:45:56.584Z,0.00
2017-11-25T01:46:55.808Z,0.00
2017-11-25T01:47:55.771Z,0.00
2017-11-25T01:48:55.739Z,0.00
2017-11-25T01:49:55.724Z,0.00
2017-11-25T01:50:55.680Z,0.00
2017-11-25T01:51:55.649Z,0.00
2017-11-25T01:52:55.630Z,0.00
2017-11-25T01:53:55.597Z,0.00
2017-11-25T01:54:55.562Z,0.00
2017-11-25T01:55:55.534Z,0.00
2017-11-25T01:56:55.516Z,0.00
2017-11-25T01:57:56.039Z,0.00
2017-11-25T01:58:55.454Z,0.00
2017-11-25T01:59:55.420Z,0.00
2017-11-25T02:00:55.381Z,0.00
2017-11-25T02:01:55.354Z,0.00
2017-11-25T02:02:55.325Z,0.00
2017-11-25T02:03:55.302Z,0.00
2017-11-25T02:04:55.275Z,0.00
2017-11-25T02:05:55.242Z,0.00
2017-11-25T02:06:55.210Z,0.00
2017-11-25T02:07:55.179Z,0.00
2017-11-25T02:08:55.150Z,0.00
2017-11-25T02:09:55.727Z,0.00
2017-11-25T02:10:55.089Z,0.00
2017-11-25T02:11:55.065Z,0.00
2017-11-25T02:12:55.025Z,0.00
2017-11-25T02:13:55.003Z,0.00
2017-11-25T02:14:54.974Z,0.00
2017-11-25T02:15:54.945Z,0.00
2017-11-25T02:16:54.906Z,0.00
2017-11-25T02:17:54.877Z,0.00
2017-11-25T02:18:54.847Z,0.00
2017-11-25T02:19:54.819Z,0.00
2017-11-25T02:20:54.786Z,0.00
2017-11-25T02:21:55.009Z,0.00
2017-11-25T02:22:54.727Z,0.00
2017-11-25T02:23:54.706Z,0.00
2017-11-25T02:24:54.672Z,0.00
2017-11-25T02:25:54.641Z,0.00
2017-11-25T02:26:54.617Z,0.00
2017-11-25T02:27:54.599Z,0.00
2017-11-25T02:28:54.553Z,0.00
2017-11-25T02:29:54.519Z,0.00
2017-11-25T02:30:54.500Z,0.00
2017-11-25T02:31:54.469Z,0.00
2017-11-25T02:32:54.429Z,0.00
2017-11-25T02:33:54.661Z,0.00
2017-11-25T02:34:54.371Z,0.00
2017-11-25T02:35:54.354Z,0.00
2017-11-25T02:36:54.309Z,0.00
2017-11-25T02:37:54.292Z,0.00
2017-11-25T02:38:54.251Z,0.00
2017-11-25T02:39:54.226Z,0.00
2017-11-25T02:40:54.199Z,0.00
2017-11-25T02:41:54.169Z,0.00
2017-11-25T02:42:54.159Z,0.00
2017-11-25T02:43:54.113Z,0.00
2017-11-25T02:44:54.073Z,0.00
2017-11-25T02:45:54.342Z,0.00
2017-11-25T02:46:54.028Z,0.00
2017-11-25T02:47:54.004Z,0.00
2017-11-25T02:48:53.966Z,0.00
2017-11-25T02:49:53.935Z,0.00
2017-11-25T02:50:53.902Z,0.00
2017-11-25T02:51:53.874Z,0.00
2017-11-25T02:52:53.833Z,0.00
2017-11-25T02:53:53.817Z,0.00
2017-11-25T02:54:53.782Z,0.00
2017-11-25T02:55:53.752Z,0.00
2017-11-25T02:56:53.721Z,0.00
2017-11-25T02:57:53.971Z,0.00
2017-11-25T02:58:53.658Z,0.00
2017-11-25T02:59:53.624Z,0.00
2017-11-25T03:00:53.609Z,0.00
2017-11-25T03:01:53.581Z,0.00
2017-11-25T03:02:53.537Z,0.00
2017-11-25T03:03:53.809Z,0.00
2017-11-25T03:04:53.491Z,0.00
2017-11-25T03:05:53.449Z,0.00
2017-11-25T03:06:53.427Z,0.00
2017-11-25T03:07:53.386Z,0.00
2017-11-25T03:08:53.364Z,0.00
2017-11-25T03:09:53.579Z,0.00
2017-11-25T03:10:53.309Z,0.00
2017-11-25T03:11:53.276Z,0.00
2017-11-25T03:12:53.253Z,0.00
2017-11-25T03:13:53.221Z,0.00
2017-11-25T03:14:53.187Z,0.00
2017-11-25T03:15:53.155Z,0.00
2017-11-25T03:16:53.140Z,0.00
2017-11-25T03:17:53.095Z,0.00
2017-11-25T03:18:53.060Z,0.00
2017-11-25T03:19:53.042Z,0.00
2017-11-25T03:20:53.012Z,0.00
2017-11-25T03:21:52.981Z,0.00
2017-11-25T03:22:52.948Z,0.00
2017-11-25T03:23:52.922Z,0.00
2017-11-25T03:24:52.888Z,0.00
2017-11-25T03:25:52.861Z,0.00
2017-11-25T03:26:52.824Z,0.00
2017-11-25T03:27:52.799Z,0.00
2017-11-25T03:28:52.778Z,0.00
2017-11-25T03:29:52.753Z,0.00
2017-11-25T03:30:52.722Z,0.00
2017-11-25T03:31:52.677Z,0.00
2017-11-25T03:32:52.909Z,0.00
2017-11-25T03:33:52.624Z,0.00
2017-11-25T03:34:52.595Z,0.00
2017-11-25T03:35:52.556Z,0.00
2017-11-25T03:36:52.545Z,0.00
2017-11-25T03:37:52.507Z,0.00
2017-11-25T03:38:52.739Z,0.00
2017-11-25T03:39:52.443Z,0.00
2017-11-25T03:40:52.417Z,0.00
2017-11-25T03:41:52.398Z,0.00
2017-11-25T03:42:52.357Z,0.00
2017-11-25T03:43:52.572Z,0.00
2017-11-25T03:44:52.294Z,0.00
2017-11-25T03:45:52.267Z,0.00
2017-11-25T03:46:52.236Z,0.00
2017-11-25T03:47:52.204Z,0.00
2017-11-25T03:48:52.178Z,0.00
2017-11-25T03:49:52.154Z,0.00
2017-11-25T03:50:52.112Z,0.00
2017-11-25T03:51:52.091Z,0.00
2017-11-25T03:52:52.071Z,0.00
2017-11-25T03:53:52.041Z,0.00
2017-11-25T03:54:52.002Z,0.00
2017-11-25T03:55:52.269Z,0.00
2017-11-25T03:56:51.945Z,0.00
2017-11-25T03:57:51.908Z,0.00
2017-11-25T03:58:51.879Z,0.00
2017-11-25T03:59:51.855Z,0.00
2017-11-25T04:00:51.863Z,0.00
2017-11-25T04:01:51.811Z,0.00
2017-11-25T04:02:51.800Z,0.00
2017-11-25T04:03:51.739Z,0.00
2017-11-25T04:04:51.715Z,0.00
2017-11-25T04:05:51.696Z,0.00
2017-11-25T04:06:51.641Z,0.00
2017-11-25T04:07:51.617Z,0.00
2017-11-25T04:08:51.582Z,0.00
2017-11-25T04:09:51.561Z,0.00
2017-11-25T04:10:51.531Z,0.00
2017-11-25T04:11:51.498Z,0.00
2017-11-25T04:12:51.470Z,0.00
2017-11-25T04:13:51.686Z,0.00
2017-11-25T04:14:51.404Z,0.00
2017-11-25T04:15:51.385Z,0.00
2017-11-25T04:16:51.356Z,0.00
2017-11-25T04:17:51.329Z,0.00
2017-11-25T04:18:51.545Z,0.00
2017-11-25T04:19:51.261Z,0.00
2017-11-25T04:20:51.238Z,0.00
2017-11-25T04:21:51.218Z,0.00
2017-11-25T04:22:51.176Z,0.00
2017-11-25T04:23:51.146Z,0.00
2017-11-25T04:24:51.117Z,0.00
2017-11-25T04:25:51.082Z,0.00
2017-11-25T04:26:51.060Z,0.00
2017-11-25T04:27:51.034Z,0.00
2017-11-25T04:28:50.993Z,0.00
2017-11-25T04:29:50.964Z,0.00
2017-11-25T04:30:50.931Z,0.00
2017-11-25T04:31:50.906Z,0.00
2017-11-25T04:32:50.877Z,0.00
2017-11-25T04:33:50.852Z,0.00
2017-11-25T04:34:50.820Z,0.00
2017-11-25T04:35:50.792Z,0.00
2017-11-25T04:36:50.754Z,0.00
2017-11-25T04:37:50.733Z,0.00
2017-11-25T04:38:50.708Z,0.00
2017-11-25T04:39:50.677Z,0.00
2017-11-25T04:40:50.646Z,0.00
2017-11-25T04:41:50.614Z,0.00
2017-11-25T04:42:50.580Z,0.00
2017-11-25T04:43:50.556Z,0.00
2017-11-25T04:44:50.531Z,0.00
2017-11-25T04:45:50.495Z,0.00
2017-11-25T04:46:50.460Z,0.00
2017-11-25T04:47:50.429Z,0.00
2017-11-25T04:48:50.661Z,0.00
2017-11-25T04:49:50.384Z,0.00
2017-11-25T04:50:50.343Z,0.00
2017-11-25T04:51:50.316Z,0.00
2017-11-25T04:52:50.292Z,0.00
2017-11-25T04:53:50.266Z,0.00
2017-11-25T04:54:50.585Z,0.00
2017-11-25T04:55:50.193Z,0.00
2017-11-25T04:56:50.172Z,0.00
2017-11-25T04:57:50.145Z,0.00
2017-11-25T04:58:50.113Z,0.00
2017-11-25T04:59:50.085Z,0.00
2017-11-25T05:00:50.062Z,0.00
2017-11-25T05:01:50.024Z,0.00
2017-11-25T05:02:49.990Z,0.00
2017-11-25T05:03:49.961Z,0.00
2017-11-25T05:04:49.930Z,0.00
2017-11-25T05:05:49.915Z,0.00
2017-11-25T05:06:50.625Z,0.00
2017-11-25T05:07:49.846Z,0.00
2017-11-25T05:08:49.822Z,0.00
2017-11-25T05:09:49.782Z,0.00
2017-11-25T05:10:49.757Z,0.00
2017-11-25T05:11:49.731Z,0.00
2017-11-25T05:12:49.693Z,0.00
2017-11-25T05:13:49.672Z,0.00
2017-11-25T05:14:49.639Z,0.00
2017-11-25T05:15:49.605Z,0.00
2017-11-25T05:16:49.582Z,0.00
2017-11-25T05:17:49.557Z,0.00
2017-11-25T05:18:49.823Z,0.00
2017-11-25T05:19:49.492Z,0.00
2017-11-25T05:20:49.456Z,0.00
2017-11-25T05:21:49.434Z,0.00
2017-11-25T05:22:49.405Z,0.00
2017-11-25T05:23:49.370Z,0.00
2017-11-25T05:24:49.352Z,0.00
2017-11-25T05:25:49.330Z,0.00
2017-11-25T05:26:49.277Z,0.00
2017-11-25T05:27:49.253Z,0.00
2017-11-25T05:28:49.227Z,0.00
2017-11-25T05:29:49.448Z,0.00
2017-11-25T05:30:49.172Z,0.00
2017-11-25T05:31:49.141Z,0.00
2017-11-25T05:32:49.100Z,0.00
2017-11-25T05:33:49.077Z,0.00
2017-11-25T05:34:49.045Z,0.00
2017-11-25T05:35:49.325Z,0.00
2017-11-25T05:36:48.987Z,0.00
2017-11-25T05:37:48.956Z,0.00
2017-11-25T05:38:48.928Z,0.00
2017-11-25T05:39:48.906Z,0.00
2017-11-25T05:40:48.871Z,0.00
2017-11-25T05:41:49.096Z,0.00
2017-11-25T05:42:48.811Z,0.00
2017-11-25T05:43:49.830Z,0.00
2017-11-25T05:44:48.750Z,0.00
2017-11-25T05:45:48.736Z,0.00
2017-11-25T05:46:48.697Z,0.00
2017-11-25T05:47:48.920Z,0.00
2017-11-25T05:48:48.643Z,0.00
2017-11-25T05:49:48.609Z,0.00
2017-11-25T05:50:48.589Z,0.00
2017-11-25T05:51:48.553Z,0.00
2017-11-25T05:52:48.525Z,0.00
2017-11-25T05:53:48.757Z,0.00
2017-11-25T05:54:48.465Z,0.00
2017-11-25T05:55:48.431Z,0.00
2017-11-25T05:56:48.398Z,0.00
2017-11-25T05:57:48.370Z,0.00
2017-11-25T05:58:48.339Z,0.00
2017-11-25T05:59:48.317Z,0.00
2017-11-25T06:00:48.277Z,0.00
2017-11-25T06:01:48.252Z,0.00
2017-11-25T06:02:48.219Z,0.00
2017-11-25T06:03:48.193Z,0.00
2017-11-25T06:04:48.167Z,0.00
2017-11-25T06:05:48.141Z,0.00
2017-11-25T06:06:48.113Z,0.00
2017-11-25T06:07:48.079Z,0.00
2017-11-25T06:08:48.046Z,0.00
2017-11-25T06:09:48.013Z,0.00
2017-11-25T06:10:47.989Z,0.00
2017-11-25T06:11:47.954Z,0.00
2017-11-25T06:12:47.931Z,0.00
2017-11-25T06:13:47.902Z,0.00
2017-11-25T06:14:47.866Z,0.00
2017-11-25T06:15:47.835Z,0.00
2017-11-25T06:16:47.816Z,0.00
2017-11-25T06:17:48.037Z,0.00
2017-11-25T06:18:47.750Z,0.00
2017-11-25T06:19:47.717Z,0.00
2017-11-25T06:20:47.688Z,0.00
2017-11-25T06:21:47.663Z,0.00
2017-11-25T06:22:47.892Z,0.00
2017-11-25T06:23:47.603Z,0.00
2017-11-25T06:24:47.572Z,0.00
2017-11-25T06:25:47.541Z,0.00
2017-11-25T06:26:47.510Z,0.00
2017-11-25T06:27:47.486Z,4.00
2017-11-25T06:28:47.759Z,4.00
2017-11-25T06:29:47.423Z,4.00
2017-11-25T06:30:47.398Z,4.00
2017-11-25T06:31:47.379Z,4.00
2017-11-25T06:32:47.339Z,4.00
2017-11-25T06:33:47.311Z,4.00
2017-11-25T06:34:47.534Z,8.00
2017-11-25T06:35:47.266Z,8.00
2017-11-25T06:36:47.285Z,8.00
2017-11-25T06:37:47.186Z,8.00
2017-11-25T06:38:47.166Z,8.00
2017-11-25T06:39:47.135Z,12.00
2017-11-25T06:40:47.110Z,12.00
2017-11-25T06:41:47.070Z,16.00
2017-11-25T06:42:47.044Z,20.00
2017-11-25T06:43:47.006Z,20.00
2017-11-25T06:44:46.991Z,24.00
2017-11-25T06:45:46.957Z,28.00
2017-11-25T06:46:46.925Z,32.00
2017-11-25T06:47:46.898Z,36.00
2017-11-25T06:48:46.870Z,40.00
2017-11-25T06:49:46.839Z,44.00
2017-11-25T06:50:46.799Z,48.00
2017-11-25T06:51:46.779Z,56.00
2017-11-25T06:52:46.750Z,60.00
2017-11-25T06:53:46.712Z,64.00
2017-11-25T06:54:46.690Z,76.00
2017-11-25T06:55:46.662Z,88.00
2017-11-25T06:56:46.621Z,96.00
2017-11-25T06:57:46.601Z,112.00
2017-11-25T06:58:46.816Z,120.00
2017-11-25T06:59:46.534Z,128.00
2017-11-25T07:00:46.512Z,144.00
2017-11-25T07:01:46.496Z,152.00
2017-11-25T07:02:46.444Z,164.00
2017-11-25T07:03:46.427Z,176.00
2017-11-25T07:04:46.641Z,188.00
2017-11-25T07:05:46.371Z,200.00
2017-11-25T07:06:46.336Z,208.00
2017-11-25T07:07:46.299Z,220.00
2017-11-25T07:08:46.276Z,232.00
2017-11-25T07:09:46.247Z,240.00
2017-11-25T07:10:46.209Z,256.00
2017-11-25T07:11:46.180Z,272.00
2017-11-25T07:12:46.149Z,276.00
2017-11-25T07:13:46.138Z,276.00
2017-11-25T07:14:46.097Z,284.00
2017-11-25T07:15:46.359Z,308.00
2017-11-25T07:16:46.041Z,336.00
2017-11-25T07:17:46.006Z,352.00
2017-11-25T07:18:45.980Z,364.00
2017-11-25T07:19:45.947Z,384.00
2017-11-25T07:20:45.909Z,400.00
2017-11-25T07:21:45.897Z,420.00
2017-11-25T07:22:45.873Z,444.00
2017-11-25T07:23:45.830Z,456.00
2017-11-25T07:24:45.801Z,468.00
2017-11-25T07:25:45.765Z,496.00
2017-11-25T07:26:45.741Z,524.00
2017-11-25T07:27:45.716Z,540.00
2017-11-25T07:28:45.677Z,576.00
2017-11-25T07:29:45.656Z,632.00
2017-11-25T07:30:45.623Z,688.00
2017-11-25T07:31:45.585Z,760.00
2017-11-25T07:32:45.556Z,804.00
2017-11-25T07:33:45.530Z,844.00
2017-11-25T07:34:45.503Z,892.00
2017-11-25T07:35:45.474Z,916.00
2017-11-25T07:36:45.453Z,916.00
2017-11-25T07:37:45.407Z,948.00
2017-11-25T07:38:45.383Z,984.00
2017-11-25T07:39:45.905Z,1020.00
2017-11-25T07:40:45.328Z,1060.00
2017-11-25T07:41:45.299Z,1124.00
2017-11-25T07:42:45.264Z,1148.00
2017-11-25T07:43:45.244Z,1164.00
2017-11-25T07:44:45.201Z,1180.00
2017-11-25T07:45:45.180Z,1216.00
2017-11-25T07:46:45.146Z,1264.00
2017-11-25T07:47:45.116Z,1320.00
2017-11-25T07:48:45.079Z,1380.00
2017-11-25T07:49:45.057Z,1440.00
2017-11-25T07:50:45.019Z,1472.00
2017-11-25T07:51:44.989Z,1492.00
2017-11-25T07:52:44.961Z,1504.00
2017-11-25T07:53:44.934Z,1508.00
2017-11-25T07:54:44.899Z,1524.00
2017-11-25T07:55:44.880Z,1572.00
2017-11-25T07:56:44.850Z,1628.00
2017-11-25T07:57:44.820Z,1768.00
2017-11-25T07:58:44.791Z,1844.00
2017-11-25T07:59:44.757Z,1816.00
2017-11-25T08:00:44.724Z,1776.00
2017-11-25T08:01:44.696Z,1732.00
2017-11-25T08:02:44.673Z,1744.00
2017-11-25T08:03:44.635Z,1792.00
2017-11-25T08:04:44.615Z,1852.00
2017-11-25T08:05:44.581Z,1916.00
2017-11-25T08:06:44.554Z,2016.00
2017-11-25T08:07:44.527Z,2136.00
2017-11-25T08:08:44.760Z,2232.00
2017-11-25T08:09:44.471Z,2264.00
2017-11-25T08:10:44.434Z,2212.00
2017-11-25T08:11:44.404Z,2152.00
2017-11-25T08:12:44.374Z,2260.00
2017-11-25T08:13:44.347Z,2528.00
2017-11-25T08:14:44.317Z,2720.00
2017-11-25T08:15:44.281Z,2780.00
2017-11-25T08:16:44.259Z,2692.00
2017-11-25T08:17:44.224Z,2564.00
2017-11-25T08:18:44.204Z,2500.00
2017-11-25T08:19:44.182Z,2548.00
2017-11-25T08:20:44.392Z,2584.00
2017-11-25T08:21:44.118Z,2580.00
2017-11-25T08:22:44.077Z,2508.00
2017-11-25T08:23:44.048Z,2512.00
2017-11-25T08:24:44.018Z,2580.00
2017-11-25T08:25:43.991Z,2708.00
2017-11-25T08:26:43.964Z,2888.00
2017-11-25T08:27:43.939Z,3112.00
2017-11-25T08:28:43.898Z,3392.00
2017-11-25T08:29:43.881Z,3672.00
2017-11-25T08:30:43.846Z,4172.00
2017-11-25T08:31:43.811Z,4440.00
2017-11-25T08:32:43.790Z,4624.00
2017-11-25T08:33:43.755Z,4736.00
2017-11-25T08:34:43.729Z,4708.00
2017-11-25T08:35:43.702Z,4620.00
2017-11-25T08:36:43.677Z,4660.00
2017-11-25T08:37:43.645Z,4644.00
2017-11-25T08:38:43.694Z,4616.00
2017-11-25T08:39:43.584Z,4652.00
2017-11-25T08:40:43.551Z,4760.00
2017-11-25T08:41:43.519Z,4892.00
2017-11-25T08:42:43.498Z,4960.00
2017-11-25T08:43:43.464Z,4920.00
2017-11-25T08:44:43.436Z,4988.00
2017-11-25T08:45:43.412Z,5328.00
2017-11-25T08:46:43.380Z,5716.00
2017-11-25T08:47:43.352Z,6004.00
2017-11-25T08:48:43.319Z,6480.00
2017-11-25T08:49:43.294Z,6900.00
2017-11-25T08:50:43.264Z,7012.00
2017-11-25T08:51:43.228Z,6964.00
2017-11-25T08:52:43.214Z,7052.00
2017-11-25T08:53:43.170Z,7008.00
2017-11-25T08:54:43.149Z,6752.00
2017-11-25T08:55:43.124Z,6420.00
2017-11-25T08:56:43.087Z,6240.00
2017-11-25T08:57:43.058Z,6164.00
2017-11-25T08:58:43.032Z,6040.00
2017-11-25T08:59:42.996Z,5944.00
2017-11-25T09:00:42.982Z,5740.00
2017-11-25T09:01:42.942Z,5824.00
2017-11-25T09:02:42.918Z,6016.00
2017-11-25T09:03:42.880Z,6272.00
2017-11-25T09:04:42.862Z,6484.00
2017-11-25T09:05:42.827Z,6560.00
2017-11-25T09:06:42.800Z,6780.00
2017-11-25T09:07:43.025Z,7012.00
2017-11-25T09:08:42.737Z,7608.00
2017-11-25T09:09:42.746Z,8096.00
2017-11-25T09:10:42.683Z,8644.00
2017-11-25T09:11:42.658Z,9160.00
2017-11-25T09:12:42.628Z,9664.00
2017-11-25T09:13:42.899Z,9992.00
2017-11-25T09:14:42.560Z,9740.00
2017-11-25T09:15:42.541Z,9528.00
2017-11-25T09:16:42.516Z,9392.00
2017-11-25T09:17:42.476Z,8728.00
2017-11-25T09:18:42.445Z,7988.00
2017-11-25T09:19:42.424Z,7640.00
2017-11-25T09:20:42.397Z,7304.00
2017-11-25T09:21:42.368Z,7156.00
2017-11-25T09:22:42.328Z,7432.00
2017-11-25T09:23:42.306Z,7808.00
2017-11-25T09:24:42.271Z,8072.00
2017-11-25T09:25:42.499Z,8468.00
2017-11-25T09:26:42.231Z,8304.00
2017-11-25T09:27:42.187Z,8288.00
2017-11-25T09:28:42.163Z,8600.00
2017-11-25T09:29:42.138Z,9140.00
2017-11-25T09:30:42.106Z,8808.00
2017-11-25T09:31:42.080Z,8060.00
2017-11-25T09:32:42.053Z,7600.00
2017-11-25T09:33:42.023Z,7452.00
2017-11-25T09:34:41.984Z,7068.00
2017-11-25T09:35:41.968Z,7164.00
2017-11-25T09:36:41.926Z,7708.00
2017-11-25T09:37:42.147Z,8192.00
2017-11-25T09:38:41.876Z,7852.00
2017-11-25T09:39:41.850Z,7500.00
2017-11-25T09:40:41.818Z,7436.00
2017-11-25T09:41:41.789Z,7196.00
2017-11-25T09:42:41.753Z,6884.00
2017-11-25T09:43:41.728Z,6932.00
2017-11-25T09:44:41.704Z,7268.00
2017-11-25T09:45:41.675Z,7624.00
2017-11-25T09:46:41.657Z,7672.00
2017-11-25T09:47:41.618Z,7636.00
2017-11-25T09:48:41.588Z,7348.00
2017-11-25T09:49:41.860Z,7596.00
2017-11-25T09:50:41.530Z,7940.00
2017-11-25T09:51:41.493Z,8464.00
2017-11-25T09:52:41.473Z,8464.00
2017-11-25T09:53:41.433Z,7948.00
2017-11-25T09:54:41.413Z,7264.00
2017-11-25T09:55:41.383Z,6728.00
2017-11-25T09:56:41.347Z,6268.00
2017-11-25T09:57:41.325Z,5840.00
2017-11-25T09:58:41.288Z,5892.00
2017-11-25T09:59:41.258Z,6676.00
2017-11-25T10:00:41.237Z,6816.00
2017-11-25T10:01:41.207Z,7144.00
2017-11-25T10:02:41.172Z,7016.00
2017-11-25T10:03:41.156Z,7032.00
2017-11-25T10:04:41.116Z,6708.00
2017-11-25T10:05:41.086Z,6728.00
2017-11-25T10:06:41.068Z,6024.00
2017-11-25T10:07:41.283Z,6516.00
2017-11-25T10:08:40.999Z,7372.00
2017-11-25T10:09:40.968Z,7528.00
2017-11-25T10:10:40.954Z,6936.00
2017-11-25T10:11:40.914Z,6416.00
2017-11-25T10:12:40.882Z,5288.00
2017-11-25T10:13:41.160Z,5332.00
2017-11-25T10:14:40.827Z,5524.00
2017-11-25T10:15:40.805Z,5844.00
2017-11-25T10:16:40.781Z,6076.00
2017-11-25T10:17:40.749Z,6820.00
2017-11-25T10:18:40.725Z,6848.00
2017-11-25T10:19:40.680Z,8012.00
2017-11-25T10:20:40.650Z,8556.00
2017-11-25T10:21:40.627Z,8280.00
2017-11-25T10:22:40.600Z,8284.00
2017-11-25T10:23:40.579Z,6320.00
2017-11-25T10:24:40.562Z,7016.00
2017-11-25T10:25:40.514Z,7816.00
2017-11-25T10:26:40.483Z,10712.00
2017-11-25T10:27:40.456Z,8488.00
2017-11-25T10:28:40.423Z,9452.00
2017-11-25T10:29:40.401Z,10232.00
2017-11-25T10:30:40.365Z,12584.00
2017-11-25T10:31:40.331Z,13192.00
2017-11-25T10:32:40.303Z,13728.00
2017-11-25T10:33:40.284Z,10760.00
2017-11-25T10:34:40.248Z,10068.00
2017-11-25T10:35:40.215Z,9700.00
2017-11-25T10:36:40.200Z,8976.00
2017-11-25T10:37:40.412Z,9168.00
2017-11-25T10:38:40.146Z,9676.00
2017-11-25T10:39:40.104Z,10296.00
2017-11-25T10:40:40.083Z,10176.00
2017-11-25T10:41:40.047Z,11060.00
2017-11-25T10:42:40.013Z,10504.00
2017-11-25T10:43:39.988Z,12412.00
2017-11-25T10:44:39.963Z,15808.00
2017-11-25T10:45:39.940Z,20416.00
2017-11-25T10:46:39.911Z,21824.00
2017-11-25T10:47:39.871Z,20448.00
2017-11-25T10:48:40.200Z,17696.00
2017-11-25T10:49:39.853Z,16120.00
2017-11-25T10:50:39.785Z,19424.00
2017-11-25T10:51:39.765Z,20704.00
2017-11-25T10:52:39.738Z,19264.00
2017-11-25T10:53:39.709Z,23136.00
2017-11-25T10:54:39.674Z,23168.00
2017-11-25T10:55:39.648Z,22528.00
2017-11-25T10:56:39.624Z,25984.00
2017-11-25T10:57:39.601Z,19776.00
2017-11-25T10:58:39.566Z,14292.00
2017-11-25T10:59:39.539Z,18016.00
2017-11-25T11:00:39.505Z,20096.00
2017-11-25T11:01:39.483Z,25888.00
2017-11-25T11:02:39.448Z,21024.00
2017-11-25T11:03:39.426Z,28832.00
2017-11-25T11:04:39.395Z,30816.00
2017-11-25T11:05:39.370Z,29984.00
2017-11-25T11:06:39.344Z,30624.00
2017-11-25T11:07:39.313Z,28928.00
2017-11-25T11:08:39.280Z,19712.00
2017-11-25T11:09:39.258Z,17696.00
2017-11-25T11:10:39.235Z,15020.00
2017-11-25T11:11:39.206Z,17056.00
2017-11-25T11:12:39.479Z,23744.00
2017-11-25T11:13:39.150Z,23616.00
2017-11-25T11:14:39.144Z,27360.00
2017-11-25T11:15:39.097Z,33856.00
2017-11-25T11:16:39.067Z,25632.00
2017-11-25T11:17:39.051Z,31328.00
2017-11-25T11:18:39.364Z,35232.00
2017-11-25T11:19:38.983Z,32864.00
2017-11-25T11:20:38.954Z,29984.00
2017-11-25T11:21:38.934Z,29440.00
2017-11-25T11:22:38.911Z,28416.00
2017-11-25T11:23:38.884Z,27584.00
2017-11-25T11:24:38.853Z,28800.00
2017-11-25T11:25:38.823Z,28384.00
2017-11-25T11:26:38.799Z,26464.00
2017-11-25T11:27:38.777Z,25792.00
2017-11-25T11:28:38.744Z,27584.00
2017-11-25T11:29:38.717Z,28544.00
2017-11-25T11:30:38.690Z,28768.00
2017-11-25T11:31:38.675Z,32960.00
2017-11-25T11:32:38.640Z,34528.00
2017-11-25T11:33:38.617Z,34688.00
2017-11-25T11:34:38.596Z,26144.00
2017-11-25T11:35:38.566Z,29024.00
2017-11-25T11:36:38.550Z,33728.00
2017-11-25T11:37:38.530Z,34752.00
2017-11-25T11:38:38.490Z,39072.00
2017-11-25T11:39:38.481Z,34176.00
2017-11-25T11:40:38.440Z,38176.00
2017-11-25T11:41:38.423Z,39776.00
2017-11-25T11:42:38.400Z,37760.00
2017-11-25T11:43:38.368Z,39008.00
2017-11-25T11:44:38.348Z,38304.00
2017-11-25T11:45:38.316Z,32896.00
2017-11-25T11:46:38.316Z,25024.00
2017-11-25T11:47:38.270Z,29024.00
2017-11-25T11:48:38.250Z,23360.00
2017-11-25T11:49:38.226Z,20928.00
2017-11-25T11:50:38.201Z,18112.00
2017-11-25T11:51:38.173Z,12012.00
2017-11-25T11:52:38.147Z,10344.00
2017-11-25T11:53:38.129Z,14628.00
2017-11-25T11:54:38.453Z,8364.00
2017-11-25T11:55:38.069Z,24640.00
2017-11-25T11:56:38.045Z,19488.00
2017-11-25T11:57:38.029Z,12352.00
2017-11-25T11:58:37.986Z,11904.00
2017-11-25T11:59:37.975Z,11612.00
2017-11-25T12:00:38.190Z,14400.00
2017-11-25T12:01:37.926Z,24448.00
2017-11-25T12:02:37.889Z,19552.00
2017-11-25T12:03:37.862Z,16004.00
2017-11-25T12:04:37.832Z,26304.00
2017-11-25T12:05:37.809Z,28320.00
2017-11-25T12:06:37.777Z,28608.00
2017-11-25T12:07:37.759Z,27296.00
2017-11-25T12:08:37.730Z,27008.00
2017-11-25T12:09:37.706Z,32512.00
2017-11-25T12:10:37.677Z,26336.00
2017-11-25T12:11:37.650Z,22880.00
2017-11-25T12:12:37.874Z,26816.00
2017-11-25T12:13:37.594Z,22240.00
2017-11-25T12:14:37.571Z,22880.00
2017-11-25T12:15:37.544Z,20992.00
2017-11-25T12:16:37.511Z,20864.00
2017-11-25T12:17:37.498Z,17888.00
2017-11-25T12:18:37.468Z,13964.00
2017-11-25T12:19:37.444Z,12736.00
2017-11-25T12:20:37.415Z,14456.00
2017-11-25T12:21:37.379Z,11428.00
2017-11-25T12:22:37.363Z,11132.00
2017-11-25T12:23:37.333Z,13940.00
2017-11-25T12:24:37.304Z,14964.00
2017-11-25T12:25:37.280Z,20512.00
2017-11-25T12:26:37.257Z,22912.00
2017-11-25T12:27:37.230Z,17952.00
2017-11-25T12:28:37.203Z,15144.00
2017-11-25T12:29:37.173Z,27680.00
2017-11-25T12:30:37.149Z,23008.00
2017-11-25T12:31:37.120Z,26432.00
2017-11-25T12:32:37.091Z,19296.00
2017-11-25T12:33:37.062Z,24096.00
2017-11-25T12:34:37.031Z,24384.00
2017-11-25T12:35:37.007Z,24672.00
2017-11-25T12:36:36.996Z,19040.00
2017-11-25T12:37:36.958Z,21344.00
2017-11-25T12:38:36.923Z,23168.00
2017-11-25T12:39:36.904Z,24832.00
2017-11-25T12:40:36.879Z,25440.00